createdAt,value
2019-03-31T00:01:53.460Z,63.73
2019-03-31T00:04:24.395Z,61.70
2019-03-31T00:06:55.122Z,57.98
2019-03-31T00:09:25.943Z,55.55
2019-03-31T00:11:56.548Z,53.05
2019-03-31T00:14:27.481Z,55.90
2019-03-31T00:16:58.381Z,51.85
2019-03-31T00:19:29.216Z,53.28
2019-03-31T00:22:00.352Z,52.40
2019-03-31T00:24:31.098Z,52.60
2019-03-31T00:27:02.104Z,51.55
2019-03-31T00:29:32.980Z,50.40
2019-03-31T00:32:03.849Z,51.13
2019-03-31T00:34:34.777Z,49.80
2019-03-31T00:37:07.682Z,48.63
2019-03-31T00:39:37.922Z,48.50
2019-03-31T00:42:08.787Z,47.53
2019-03-31T00:44:39.621Z,44.67
2019-03-31T00:47:10.360Z,40.10
2019-03-31T00:49:41.177Z,40.60
2019-03-31T00:52:12.038Z,41.55
2019-03-31T00:54:43.000Z,41.42
2019-03-31T00:57:13.797Z,39.23
2019-03-31T00:59:44.734Z,41.73
2019-03-31T01:02:19.528Z,41.20
2019-03-31T01:04:50.427Z,39.60
2019-03-31T01:07:22.611Z,39.18
2019-03-31T01:09:54.280Z,36.25
2019-03-31T01:12:27.125Z,37.38
2019-03-31T01:14:57.923Z,35.85
2019-03-31T01:17:28.904Z,34.80
2019-03-31T01:20:00.966Z,33.33
2019-03-31T01:22:31.921Z,33.65
2019-03-31T01:25:02.928Z,33.33
2019-03-31T01:27:33.929Z,32.58
2019-03-31T01:30:05.793Z,32.55
2019-03-31T01:32:37.306Z,32.45
2019-03-31T01:35:09.779Z,32.20
2019-03-31T01:37:40.813Z,30.57
2019-03-31T01:40:11.686Z,30.68
2019-03-31T01:42:42.322Z,29.65
2019-03-31T01:45:13.367Z,31.02
2019-03-31T01:47:44.088Z,32.00
2019-03-31T01:50:16.681Z,31.42
2019-03-31T01:52:48.601Z,30.90
2019-03-31T01:55:19.548Z,31.07
2019-03-31T01:57:50.367Z,29.75
2019-03-31T02:00:22.617Z,32.03
2019-03-31T02:02:53.906Z,29.32
2019-03-31T02:05:24.660Z,29.02
2019-03-31T02:07:55.637Z,28.85
2019-03-31T02:10:26.566Z,29.23
2019-03-31T02:12:57.317Z,30.30
2019-03-31T02:15:28.021Z,29.82
2019-03-31T02:17:58.955Z,28.75
2019-03-31T02:20:30.019Z,30.23
2019-03-31T02:23:00.856Z,31.20
2019-03-31T02:25:31.673Z,30.17
2019-03-31T02:28:02.663Z,29.42
2019-03-31T02:30:34.415Z,32.13
2019-03-31T02:33:05.626Z,30.68
2019-03-31T02:35:36.521Z,30.52
2019-03-31T02:38:07.484Z,32.15
2019-03-31T02:40:38.263Z,31.07
2019-03-31T02:43:08.969Z,32.60
2019-03-31T02:45:39.732Z,30.08
2019-03-31T02:48:10.526Z,31.10
2019-03-31T02:50:43.828Z,30.82
2019-03-31T02:53:15.221Z,30.23
2019-03-31T02:55:47.358Z,31.17
2019-03-31T02:58:19.738Z,31.55
2019-03-31T03:00:50.750Z,32.55
2019-03-31T03:03:21.932Z,31.25
2019-03-31T03:05:53.022Z,33.80
2019-03-31T03:08:23.997Z,33.38
2019-03-31T03:10:55.134Z,34.65
2019-03-31T03:13:28.271Z,35.25
2019-03-31T03:15:58.466Z,34.40
2019-03-31T03:18:29.228Z,35.15
2019-03-31T03:21:00.078Z,32.65
2019-03-31T03:23:30.710Z,33.75
2019-03-31T03:26:01.636Z,31.93
2019-03-31T03:28:32.561Z,31.20
2019-03-31T03:31:03.547Z,31.52
2019-03-31T03:33:34.925Z,31.25
2019-03-31T03:36:05.857Z,32.48
2019-03-31T03:38:36.843Z,32.65
2019-03-31T03:41:07.777Z,32.95
2019-03-31T03:43:54.144Z,31.93
2019-03-31T03:46:10.969Z,32.53
2019-03-31T03:48:41.856Z,32.53
2019-03-31T03:51:12.810Z,32.42
2019-03-31T03:53:43.666Z,32.25
2019-03-31T03:56:14.755Z,33.08
2019-03-31T03:58:45.804Z,34.20
2019-03-31T04:01:17.860Z,32.13
2019-03-31T04:03:48.844Z,32.80
2019-03-31T04:06:19.760Z,31.93
2019-03-31T04:08:50.764Z,30.57
2019-03-31T04:11:23.711Z,32.03
2019-03-31T04:13:54.694Z,30.97
2019-03-31T04:16:25.637Z,31.95
2019-03-31T04:18:56.655Z,33.18
2019-03-31T04:21:28.020Z,30.25
2019-03-31T04:23:58.959Z,31.07
2019-03-31T04:26:29.850Z,30.10
2019-03-31T04:29:00.763Z,29.67
2019-03-31T04:31:31.645Z,32.70
2019-03-31T04:34:02.317Z,29.98
2019-03-31T04:36:33.097Z,29.87
2019-03-31T04:39:03.992Z,31.27
2019-03-31T04:41:34.960Z,30.15
2019-03-31T04:44:05.900Z,31.48
2019-03-31T04:46:36.753Z,29.70
2019-03-31T04:49:07.690Z,33.33
2019-03-31T04:51:38.745Z,31.57
2019-03-31T04:54:09.822Z,30.02
2019-03-31T04:56:40.992Z,30.27
2019-03-31T04:59:11.795Z,30.25
2019-03-31T05:01:42.660Z,28.87
2019-03-31T05:04:13.578Z,29.50
2019-03-31T05:06:44.329Z,28.75
2019-03-31T05:09:15.116Z,30.02
2019-03-31T05:11:45.746Z,29.60
2019-03-31T05:14:17.104Z,29.32
2019-03-31T05:16:47.941Z,27.67
2019-03-31T05:19:18.769Z,29.27
2019-03-31T05:21:49.659Z,28.73
2019-03-31T05:24:20.627Z,29.65
2019-03-31T05:26:51.437Z,28.57
2019-03-31T05:29:22.450Z,29.70
2019-03-31T05:31:53.256Z,29.72
2019-03-31T05:34:24.100Z,28.20
2019-03-31T05:36:54.865Z,28.90
2019-03-31T05:39:25.734Z,27.98
2019-03-31T05:41:56.273Z,28.27
2019-03-31T05:44:29.927Z,28.42
2019-03-31T05:47:01.136Z,29.55
2019-03-31T05:49:31.843Z,28.73
2019-03-31T05:52:02.653Z,28.67
2019-03-31T05:54:35.140Z,28.30
2019-03-31T05:57:06.215Z,28.35
2019-03-31T05:59:36.926Z,26.97
2019-03-31T06:02:07.867Z,28.25
2019-03-31T06:04:38.724Z,27.25
2019-03-31T06:07:09.885Z,28.27
2019-03-31T06:09:40.889Z,26.65
2019-03-31T06:12:11.849Z,25.92
2019-03-31T06:14:42.586Z,26.17
2019-03-31T06:17:13.387Z,27.58
2019-03-31T06:19:44.205Z,26.55
2019-03-31T06:22:15.113Z,27.05
2019-03-31T06:24:46.240Z,27.65
2019-03-31T06:27:17.083Z,27.42
2019-03-31T06:29:47.903Z,27.20
2019-03-31T06:32:19.033Z,27.13
2019-03-31T06:34:49.919Z,24.57
2019-03-31T06:37:20.691Z,27.05
2019-03-31T06:39:51.529Z,26.68
2019-03-31T06:42:22.505Z,26.77
2019-03-31T06:44:53.512Z,28.30
2019-03-31T06:47:24.527Z,27.15
2019-03-31T06:49:55.347Z,25.72
2019-03-31T06:52:28.108Z,28.00
2019-03-31T06:54:58.790Z,26.42
2019-03-31T06:57:29.626Z,26.15
2019-03-31T07:00:00.581Z,26.45
2019-03-31T07:02:31.435Z,26.17
2019-03-31T07:05:03.072Z,25.60
2019-03-31T07:07:34.109Z,24.82
2019-03-31T07:10:06.358Z,25.10
2019-03-31T07:12:37.386Z,25.25
2019-03-31T07:15:10.303Z,26.12
2019-03-31T07:17:41.182Z,24.90
2019-03-31T07:20:13.397Z,25.43
2019-03-31T07:22:44.349Z,25.23
2019-03-31T07:25:15.952Z,27.25
2019-03-31T07:27:46.772Z,27.07
2019-03-31T07:30:19.664Z,26.80
2019-03-31T07:32:50.518Z,24.82
2019-03-31T07:35:21.400Z,26.12
2019-03-31T07:37:52.086Z,23.83
2019-03-31T07:40:24.152Z,23.40
2019-03-31T07:42:55.238Z,24.12
2019-03-31T07:45:26.259Z,24.52
2019-03-31T07:47:57.104Z,24.05
2019-03-31T07:50:28.515Z,24.75
2019-03-31T07:52:59.368Z,24.72
2019-03-31T07:55:30.305Z,23.67
2019-03-31T07:58:01.113Z,24.23
2019-03-31T08:00:32.115Z,24.10
2019-03-31T08:03:02.914Z,24.02
2019-03-31T08:05:37.491Z,23.55
2019-03-31T08:08:05.978Z,23.00
2019-03-31T08:10:36.695Z,23.45
2019-03-31T08:13:08.061Z,24.55
2019-03-31T08:15:38.895Z,24.30
2019-03-31T08:18:09.781Z,23.95
2019-03-31T08:20:40.697Z,23.67
2019-03-31T08:23:11.452Z,23.20
2019-03-31T08:25:42.302Z,22.73
2019-03-31T08:28:13.193Z,21.68
2019-03-31T08:30:43.845Z,24.12
2019-03-31T08:33:14.666Z,23.60
2019-03-31T08:35:47.751Z,23.70
2019-03-31T08:38:17.746Z,24.35
2019-03-31T08:40:48.809Z,22.87
2019-03-31T08:43:19.604Z,23.50
2019-03-31T08:45:50.505Z,23.50
2019-03-31T08:48:21.417Z,22.60
2019-03-31T08:50:52.121Z,23.15
2019-03-31T08:53:22.922Z,21.15
2019-03-31T08:55:53.917Z,23.73
2019-03-31T08:58:24.763Z,21.42
2019-03-31T09:00:56.799Z,21.05
2019-03-31T09:03:27.884Z,20.60
2019-03-31T09:06:02.180Z,20.60
2019-03-31T09:08:30.773Z,20.80
2019-03-31T09:11:01.697Z,22.00
2019-03-31T09:13:32.734Z,22.87
2019-03-31T09:16:03.543Z,22.20
2019-03-31T09:18:34.436Z,23.02
2019-03-31T09:21:05.487Z,21.37
2019-03-31T09:23:36.410Z,22.17
2019-03-31T09:26:07.465Z,21.87
2019-03-31T09:28:38.536Z,23.25
2019-03-31T09:31:09.256Z,23.10
2019-03-31T09:33:39.948Z,23.55
2019-03-31T09:36:16.470Z,22.65
2019-03-31T09:38:42.962Z,22.77
2019-03-31T09:41:15.245Z,22.82
2019-03-31T09:43:46.153Z,24.07
2019-03-31T09:46:17.073Z,22.13
2019-03-31T09:48:47.936Z,23.90
2019-03-31T09:51:18.679Z,22.85
2019-03-31T09:53:49.566Z,23.27
2019-03-31T09:56:20.452Z,20.85
2019-03-31T09:58:51.407Z,20.57
2019-03-31T10:01:22.247Z,21.23
2019-03-31T10:03:54.816Z,20.15
2019-03-31T10:06:30.525Z,18.62
2019-03-31T10:08:57.345Z,18.37
2019-03-31T10:11:28.139Z,16.95
2019-03-31T10:13:59.081Z,16.23
2019-03-31T10:16:30.066Z,16.35
2019-03-31T10:19:00.845Z,15.13
2019-03-31T10:21:31.718Z,14.45
2019-03-31T10:24:02.712Z,13.30
2019-03-31T10:26:33.665Z,12.93
2019-03-31T10:29:04.468Z,13.35
2019-03-31T10:31:35.283Z,12.80
2019-03-31T10:34:06.286Z,13.45
2019-03-31T10:36:44.524Z,13.45
2019-03-31T10:39:09.703Z,14.13
2019-03-31T10:41:40.500Z,15.03
2019-03-31T10:44:11.449Z,15.50
2019-03-31T10:46:42.213Z,15.55
2019-03-31T10:49:13.140Z,15.80
2019-03-31T10:51:44.125Z,15.90
2019-03-31T10:54:16.910Z,16.40
2019-03-31T10:56:47.326Z,17.95
2019-03-31T10:59:18.133Z,18.77
2019-03-31T11:01:49.080Z,18.37
2019-03-31T11:04:19.920Z,18.87
2019-03-31T11:06:59.034Z,19.02
2019-03-31T11:09:23.101Z,18.23
2019-03-31T11:11:54.067Z,19.37
2019-03-31T11:14:25.191Z,18.95
2019-03-31T11:16:56.085Z,19.10
2019-03-31T11:19:26.845Z,18.75
2019-03-31T11:21:58.861Z,20.57
2019-03-31T11:24:30.253Z,20.68
2019-03-31T11:27:01.141Z,21.25
2019-03-31T11:29:31.954Z,20.55
2019-03-31T11:32:03.046Z,20.30
2019-03-31T11:34:34.018Z,22.48
2019-03-31T11:37:13.288Z,21.25
2019-03-31T11:39:37.230Z,21.40
2019-03-31T11:42:07.975Z,22.20
2019-03-31T11:44:38.995Z,21.23
2019-03-31T11:47:09.813Z,23.00
2019-03-31T11:49:40.608Z,22.82
2019-03-31T11:52:11.562Z,23.90
2019-03-31T11:54:45.715Z,23.25
2019-03-31T11:57:17.372Z,24.82
2019-03-31T11:59:49.566Z,28.23
2019-03-31T12:02:27.004Z,31.20
2019-03-31T12:04:51.250Z,32.15
2019-03-31T12:07:28.185Z,31.55
2019-03-31T12:09:54.188Z,33.35
2019-03-31T12:12:25.140Z,32.60
2019-03-31T12:15:00.596Z,33.50
2019-03-31T12:17:28.256Z,33.30
2019-03-31T12:19:59.116Z,30.62
2019-03-31T12:22:29.853Z,27.27
2019-03-31T12:25:00.818Z,23.95
2019-03-31T12:27:31.512Z,22.93
2019-03-31T12:30:02.382Z,22.10
2019-03-31T12:32:33.176Z,23.18
2019-03-31T12:35:04.250Z,22.52
2019-03-31T12:37:42.376Z,22.60
2019-03-31T12:40:08.773Z,21.15
2019-03-31T12:42:39.627Z,21.20
2019-03-31T12:45:10.659Z,20.50
2019-03-31T12:47:41.452Z,19.15
2019-03-31T12:50:12.423Z,19.80
2019-03-31T12:52:47.504Z,19.32
2019-03-31T12:55:15.394Z,18.37
2019-03-31T12:57:46.116Z,21.80
2019-03-31T13:00:17.357Z,20.15
2019-03-31T13:02:48.132Z,22.27
2019-03-31T13:05:18.737Z,22.60
2019-03-31T13:07:56.069Z,20.60
2019-03-31T13:10:21.927Z,19.50
2019-03-31T13:12:52.723Z,18.90
2019-03-31T13:15:23.742Z,19.20
2019-03-31T13:17:54.607Z,19.55
2019-03-31T13:20:25.435Z,22.15
2019-03-31T13:22:56.138Z,21.87
2019-03-31T13:25:27.182Z,20.82
2019-03-31T13:27:58.244Z,18.07
2019-03-31T13:30:29.021Z,19.32
2019-03-31T13:33:00.053Z,19.23
2019-03-31T13:35:30.766Z,19.27
2019-03-31T13:38:11.127Z,19.27
2019-03-31T13:40:33.923Z,19.52
2019-03-31T13:43:04.763Z,19.32
2019-03-31T13:45:35.451Z,18.20
2019-03-31T13:48:06.346Z,18.80
2019-03-31T13:50:37.075Z,18.27
2019-03-31T13:53:07.872Z,17.42
2019-03-31T13:55:38.767Z,16.90
2019-03-31T13:58:10.868Z,16.05
2019-03-31T14:00:42.610Z,15.13
2019-03-31T14:03:13.500Z,15.00
2019-03-31T14:05:44.411Z,14.45
2019-03-31T14:08:25.578Z,15.03
2019-03-31T14:10:47.494Z,14.25
2019-03-31T14:13:18.168Z,14.98
2019-03-31T14:15:49.064Z,14.65
2019-03-31T14:18:20.341Z,15.38
2019-03-31T14:20:51.135Z,15.50
2019-03-31T14:23:22.005Z,14.45
2019-03-31T14:25:52.959Z,14.78
2019-03-31T14:28:23.796Z,15.25
2019-03-31T14:30:54.713Z,14.95
2019-03-31T14:33:25.765Z,15.20
2019-03-31T14:35:56.608Z,16.17
2019-03-31T14:38:39.568Z,14.47
2019-03-31T14:40:59.559Z,15.30
2019-03-31T14:43:30.348Z,14.70
2019-03-31T14:46:01.238Z,14.98
2019-03-31T14:48:32.023Z,15.23
2019-03-31T14:51:02.957Z,15.98
2019-03-31T14:53:33.859Z,15.03
2019-03-31T14:56:04.735Z,15.88
2019-03-31T14:58:35.511Z,16.42
2019-03-31T15:01:06.441Z,15.75
2019-03-31T15:03:37.194Z,15.43
2019-03-31T15:06:07.992Z,15.68
2019-03-31T15:08:53.459Z,16.62
2019-03-31T15:11:11.738Z,17.30
2019-03-31T15:13:42.620Z,17.30
2019-03-31T15:16:13.761Z,17.60
2019-03-31T15:18:44.565Z,16.90
2019-03-31T15:21:15.423Z,17.42
2019-03-31T15:23:46.483Z,18.02
2019-03-31T15:26:17.246Z,16.87
2019-03-31T15:28:48.179Z,16.35
2019-03-31T15:31:18.965Z,16.35
2019-03-31T15:33:49.776Z,17.00
2019-03-31T15:36:20.676Z,15.85
2019-03-31T15:38:51.632Z,17.30
2019-03-31T15:41:22.406Z,17.92
2019-03-31T15:43:53.225Z,17.07
2019-03-31T15:46:24.714Z,17.77
2019-03-31T15:48:56.053Z,17.05
2019-03-31T15:51:26.657Z,16.70
2019-03-31T15:53:58.048Z,17.12
2019-03-31T15:56:28.842Z,18.27
2019-03-31T15:59:00.241Z,18.67
2019-03-31T16:01:31.270Z,17.65
2019-03-31T16:04:02.224Z,17.92
2019-03-31T16:06:33.086Z,18.32
2019-03-31T16:09:06.811Z,19.05
2019-03-31T16:11:37.409Z,20.62
2019-03-31T16:14:08.165Z,20.35
2019-03-31T16:16:38.974Z,19.77
2019-03-31T16:19:10.032Z,19.77
2019-03-31T16:21:43.997Z,19.55
2019-03-31T16:24:13.191Z,19.30
2019-03-31T16:26:44.039Z,20.43
2019-03-31T16:29:15.055Z,19.85
2019-03-31T16:31:45.987Z,20.37
2019-03-31T16:34:16.892Z,20.68
2019-03-31T16:36:47.814Z,20.88
2019-03-31T16:39:18.554Z,20.27
2019-03-31T16:41:49.458Z,20.75
2019-03-31T16:44:20.557Z,18.85
2019-03-31T16:46:51.361Z,18.42
2019-03-31T16:49:21.946Z,20.52
2019-03-31T16:51:52.933Z,19.65
2019-03-31T16:54:23.868Z,19.32
2019-03-31T16:56:54.855Z,19.45
2019-03-31T16:59:25.708Z,20.50
2019-03-31T17:01:56.712Z,19.95
2019-03-31T17:04:27.473Z,19.45
2019-03-31T17:06:58.210Z,21.05
2019-03-31T17:09:29.233Z,20.35
2019-03-31T17:12:01.124Z,19.48
2019-03-31T17:14:32.061Z,19.75
2019-03-31T17:17:03.023Z,19.60
2019-03-31T17:19:33.995Z,19.37
2019-03-31T17:22:05.629Z,19.45
2019-03-31T17:24:36.394Z,20.15
2019-03-31T17:27:07.168Z,19.32
2019-03-31T17:29:37.979Z,19.92
2019-03-31T17:32:09.896Z,20.35
2019-03-31T17:34:40.824Z,19.67
2019-03-31T17:37:11.668Z,20.88
2019-03-31T17:39:42.554Z,20.88
2019-03-31T17:42:13.529Z,20.20
2019-03-31T17:44:44.395Z,18.35
2019-03-31T17:47:15.160Z,18.60
2019-03-31T17:49:46.098Z,16.62
2019-03-31T17:52:19.346Z,15.75
2019-03-31T17:54:50.181Z,16.82
2019-03-31T17:57:20.890Z,15.88
2019-03-31T17:59:51.843Z,16.15
2019-03-31T18:02:22.871Z,14.98
2019-03-31T18:04:53.795Z,16.85
2019-03-31T18:07:24.754Z,15.58
2019-03-31T18:09:55.707Z,14.23
2019-03-31T18:12:26.641Z,16.97
2019-03-31T18:14:57.594Z,15.20
2019-03-31T18:17:28.376Z,15.50
2019-03-31T18:19:59.144Z,16.73
2019-03-31T18:22:30.046Z,15.70
2019-03-31T18:25:00.796Z,15.28
2019-03-31T18:27:31.585Z,17.02
2019-03-31T18:30:02.363Z,16.65
2019-03-31T18:32:34.070Z,15.75
2019-03-31T18:35:05.494Z,14.68
2019-03-31T18:37:36.402Z,15.50
2019-03-31T18:40:08.840Z,15.32
2019-03-31T18:42:39.717Z,14.95
2019-03-31T18:45:11.345Z,14.20
2019-03-31T18:47:42.355Z,14.78
2019-03-31T18:50:13.328Z,15.18
2019-03-31T18:52:44.428Z,15.25
2019-03-31T18:55:16.609Z,15.15
2019-03-31T18:57:48.682Z,14.85
2019-03-31T19:00:20.765Z,14.98
2019-03-31T19:02:55.594Z,14.63
2019-03-31T19:05:27.597Z,14.53
2019-03-31T19:07:59.695Z,15.10
2019-03-31T19:10:31.718Z,13.98
2019-03-31T19:13:03.898Z,14.65
2019-03-31T19:15:35.937Z,14.07
2019-03-31T19:18:06.919Z,13.75
2019-03-31T19:20:39.182Z,13.43
2019-03-31T19:23:11.331Z,14.98
2019-03-31T19:25:43.430Z,14.35
2019-03-31T19:28:15.683Z,14.53
2019-03-31T19:30:47.877Z,14.63
2019-03-31T19:33:19.925Z,14.30
2019-03-31T19:35:52.182Z,14.98
2019-03-31T19:38:24.426Z,15.53
2019-03-31T19:41:03.846Z,14.58
2019-03-31T19:43:30.045Z,14.28
2019-03-31T19:46:05.313Z,14.75
2019-03-31T19:48:35.735Z,14.78
2019-03-31T19:51:08.171Z,15.38
2019-03-31T19:53:40.389Z,15.30
2019-03-31T19:56:13.261Z,15.40
2019-03-31T19:58:45.460Z,15.03
2019-03-31T20:01:17.505Z,15.95
2019-03-31T20:03:49.595Z,15.30
2019-03-31T20:06:21.696Z,16.42
2019-03-31T20:08:53.699Z,14.93
2019-03-31T20:11:26.236Z,15.40
2019-03-31T20:13:58.311Z,15.45
2019-03-31T20:16:30.945Z,15.30
2019-03-31T20:19:03.040Z,16.37
2019-03-31T20:21:34.973Z,15.23
2019-03-31T20:24:07.156Z,14.65
2019-03-31T20:26:39.115Z,15.72
2019-03-31T20:29:11.318Z,15.08
2019-03-31T20:31:43.543Z,15.83
2019-03-31T20:34:15.787Z,17.17
2019-03-31T20:36:48.577Z,16.02
2019-03-31T20:39:20.770Z,17.25
2019-03-31T20:41:53.178Z,16.35
2019-03-31T20:44:24.057Z,15.53
2019-03-31T20:46:55.731Z,18.17
2019-03-31T20:49:26.677Z,18.02
2019-03-31T20:51:57.623Z,17.62
2019-03-31T20:54:28.607Z,18.05
2019-03-31T20:56:59.388Z,18.27
2019-03-31T20:59:30.164Z,18.98
2019-03-31T21:02:00.992Z,18.98
2019-03-31T21:04:31.852Z,17.98
2019-03-31T21:07:02.960Z,18.07
2019-03-31T21:09:44.175Z,17.85
2019-03-31T21:12:05.941Z,17.10
2019-03-31T21:14:36.855Z,17.82
2019-03-31T21:17:07.550Z,16.85
2019-03-31T21:19:38.490Z,17.27
2019-03-31T21:22:09.242Z,17.10
2019-03-31T21:24:40.139Z,17.02
2019-03-31T21:27:11.059Z,17.07
2019-03-31T21:29:41.757Z,18.12
2019-03-31T21:32:12.600Z,17.25
2019-03-31T21:34:43.508Z,17.42
2019-03-31T21:37:14.435Z,16.80
2019-03-31T21:39:45.174Z,16.75
2019-03-31T21:42:15.963Z,16.17
2019-03-31T21:44:46.924Z,17.37
2019-03-31T21:47:17.896Z,18.05
2019-03-31T21:49:48.744Z,18.20
2019-03-31T21:52:19.345Z,17.65
2019-03-31T21:54:50.216Z,16.75
2019-03-31T21:57:21.056Z,17.75
2019-03-31T21:59:51.972Z,19.17
2019-03-31T22:02:22.762Z,18.05
2019-03-31T22:04:53.746Z,17.67
2019-03-31T22:07:24.588Z,18.40
2019-03-31T23:42:26.938Z,31.85
2019-03-31T23:44:57.857Z,34.48
2019-03-31T23:47:28.473Z,32.98
2019-03-31T23:49:59.430Z,33.33
2019-03-31T23:52:30.342Z,38.83
2019-03-31T23:55:01.821Z,41.53
2019-03-31T23:57:34.190Z,39.42
